sensor_id;sensor_type;location;lat;lon;timestamp;pressure;altitude;pressure_sealevel;temperature;humidity
71105;BME280;58760;48.716;8.962;2023-04-30T00:00:41;96741.75;;;11.01;85.68
71105;BME280;58760;48.716;8.962;2023-04-30T00:03:07;96735.94;;;10.97;85.80
71105;BME280;58760;48.716;8.962;2023-04-30T00:05:32;96738.25;;;11.00;85.88
71105;BME280;58760;48.716;8.962;2023-04-30T00:07:58;96744.25;;;10.86;86.54
71105;BME280;58760;48.716;8.962;2023-04-30T00:10:23;96733.28;;;10.89;86.49
71105;BME280;58760;48.716;8.962;2023-04-30T00:12:48;96737.13;;;10.95;86.30
71105;BME280;58760;48.716;8.962;2023-04-30T00:15:14;96740.56;;;11.03;85.54
71105;BME280;58760;48.716;8.962;2023-04-30T00:17:39;96724.53;;;10.89;85.79
71105;BME280;58760;48.716;8.962;2023-04-30T00:20:05;96730.13;;;10.94;85.97
71105;BME280;58760;48.716;8.962;2023-04-30T00:22:31;96722.47;;;10.99;85.17
71105;BME280;58760;48.716;8.962;2023-04-30T00:24:57;96731.28;;;10.99;85.42
71105;BME280;58760;48.716;8.962;2023-04-30T00:27:22;96738.25;;;10.92;85.61
71105;BME280;58760;48.716;8.962;2023-04-30T00:29:48;96742.75;;;10.92;85.48
71105;BME280;58760;48.716;8.962;2023-04-30T00:32:13;96733.78;;;10.93;85.54
71105;BME280;58760;48.716;8.962;2023-04-30T00:34:39;96736.13;;;10.88;85.25
71105;BME280;58760;48.716;8.962;2023-04-30T00:37:04;96742.78;;;10.76;86.16
71105;BME280;58760;48.716;8.962;2023-04-30T00:39:30;96740.44;;;10.89;85.60
71105;BME280;58760;48.716;8.962;2023-04-30T00:41:55;96741.78;;;10.85;85.04
71105;BME280;58760;48.716;8.962;2023-04-30T00:44:20;96749.06;;;10.83;85.48
71105;BME280;58760;48.716;8.962;2023-04-30T00:46:46;96748.91;;;10.84;85.25
71105;BME280;58760;48.716;8.962;2023-04-30T00:49:11;96749.41;;;10.80;85.38
71105;BME280;58760;48.716;8.962;2023-04-30T00:51:39;96745.41;;;10.84;85.44
71105;BME280;58760;48.716;8.962;2023-04-30T00:54:05;96744.44;;;10.77;85.52
71105;BME280;58760;48.716;8.962;2023-04-30T00:56:31;96749.75;;;10.77;85.98
71105;BME280;58760;48.716;8.962;2023-04-30T00:58:57;96749.94;;;10.75;86.09
71105;BME280;58760;48.716;8.962;2023-04-30T01:01:26;96746.44;;;10.75;85.72
71105;BME280;58760;48.716;8.962;2023-04-30T01:03:54;96740.97;;;10.68;86.20
71105;BME280;58760;48.716;8.962;2023-04-30T01:06:20;96748.28;;;10.58;86.51
71105;BME280;58760;48.716;8.962;2023-04-30T01:08:46;96744.13;;;10.64;86.35
71105;BME280;58760;48.716;8.962;2023-04-30T01:16:22;96745.78;;;10.65;85.66
71105;BME280;58760;48.716;8.962;2023-04-30T01:19:13;96736.84;;;10.66;85.82
71105;BME280;58760;48.716;8.962;2023-04-30T01:21:44;96736.34;;;10.54;85.86
71105;BME280;58760;48.716;8.962;2023-04-30T01:29:42;96732.84;;;10.54;86.17
71105;BME280;58760;48.716;8.962;2023-04-30T01:32:11;96720.09;;;10.49;85.97
71105;BME280;58760;48.716;8.962;2023-04-30T01:34:36;96724.56;;;10.48;86.24
71105;BME280;58760;48.716;8.962;2023-04-30T01:37:15;96719.59;;;10.45;86.37
71105;BME280;58760;48.716;8.962;2023-04-30T01:50:44;96727.56;;;10.37;86.56
71105;BME280;58760;48.716;8.962;2023-04-30T01:53:23;96736.69;;;10.35;87.03
71105;BME280;58760;48.716;8.962;2023-04-30T01:56:03;96729.22;;;10.46;86.50
71105;BME280;58760;48.716;8.962;2023-04-30T01:58:31;96731.22;;;10.44;86.07
71105;BME280;58760;48.716;8.962;2023-04-30T02:00:56;96726.75;;;10.37;86.63
71105;BME280;58760;48.716;8.962;2023-04-30T02:03:22;96730.88;;;10.31;86.68
71105;BME280;58760;48.716;8.962;2023-04-30T02:05:47;96725.56;;;10.31;86.71
71105;BME280;58760;48.716;8.962;2023-04-30T02:08:13;96728.91;;;10.33;86.51
71105;BME280;58760;48.716;8.962;2023-04-30T02:10:38;96731.91;;;10.30;86.65
71105;BME280;58760;48.716;8.962;2023-04-30T02:13:04;96727.41;;;10.31;86.25
71105;BME280;58760;48.716;8.962;2023-04-30T02:15:29;96723.75;;;10.32;86.61
71105;BME280;58760;48.716;8.962;2023-04-30T02:17:54;96725.59;;;10.23;86.72
71105;BME280;58760;48.716;8.962;2023-04-30T02:20:20;96725.75;;;10.30;86.45
71105;BME280;58760;48.716;8.962;2023-04-30T02:22:45;96733.88;;;10.28;86.83
71105;BME280;58760;48.716;8.962;2023-04-30T02:25:11;96726.94;;;10.27;86.43
71105;BME280;58760;48.716;8.962;2023-04-30T02:27:37;96728.56;;;10.28;86.41
71105;BME280;58760;48.716;8.962;2023-04-30T02:30:03;96725.25;;;10.26;86.41
71105;BME280;58760;48.716;8.962;2023-04-30T02:32:28;96724.94;;;10.29;86.47
71105;BME280;58760;48.716;8.962;2023-04-30T02:34:54;96723.59;;;10.25;86.79
71105;BME280;58760;48.716;8.962;2023-04-30T02:37:19;96729.50;;;10.11;87.40
71105;BME280;58760;48.716;8.962;2023-04-30T02:39:45;96727.41;;;10.15;87.07
71105;BME280;58760;48.716;8.962;2023-04-30T02:42:10;96729.06;;;10.16;87.35
71105;BME280;58760;48.716;8.962;2023-04-30T02:44:36;96727.53;;;10.13;87.06
71105;BME280;58760;48.716;8.962;2023-04-30T02:47:01;96720.44;;;10.14;87.18
71105;BME280;58760;48.716;8.962;2023-04-30T02:49:27;96724.06;;;10.13;87.16
71105;BME280;58760;48.716;8.962;2023-04-30T02:51:54;96728.84;;;10.09;87.37
71105;BME280;58760;48.716;8.962;2023-04-30T02:54:19;96730.69;;;10.01;87.75
71105;BME280;58760;48.716;8.962;2023-04-30T02:56:45;96726.53;;;10.06;87.67
71105;BME280;58760;48.716;8.962;2023-04-30T02:59:11;96735.16;;;10.08;87.44
71105;BME280;58760;48.716;8.962;2023-04-30T03:01:36;96727.34;;;9.98;87.36
71105;BME280;58760;48.716;8.962;2023-04-30T03:04:02;96731.53;;;10.01;87.78
71105;BME280;58760;48.716;8.962;2023-04-30T03:06:30;96731.19;;;9.88;87.93
71105;BME280;58760;48.716;8.962;2023-04-30T03:08:57;96732.81;;;9.89;88.19
71105;BME280;58760;48.716;8.962;2023-04-30T03:11:23;96719.91;;;9.94;88.55
71105;BME280;58760;48.716;8.962;2023-04-30T03:13:48;96722.56;;;9.94;87.71
71105;BME280;58760;48.716;8.962;2023-04-30T03:16:15;96736.47;;;9.88;87.91
71105;BME280;58760;48.716;8.962;2023-04-30T03:18:41;96727.50;;;9.89;87.98
71105;BME280;58760;48.716;8.962;2023-04-30T03:21:06;96724.19;;;9.95;87.84
71105;BME280;58760;48.716;8.962;2023-04-30T03:23:32;96721.41;;;9.96;87.24
71105;BME280;58760;48.716;8.962;2023-04-30T03:25:57;96723.88;;;9.90;87.80
71105;BME280;58760;48.716;8.962;2023-04-30T03:28:23;96721.22;;;9.90;87.52
71105;BME280;58760;48.716;8.962;2023-04-30T03:30:49;96718.41;;;9.91;87.49
71105;BME280;58760;48.716;8.962;2023-04-30T03:33:14;96727.50;;;9.81;88.03
71105;BME280;58760;48.716;8.962;2023-04-30T03:35:40;96715.75;;;9.75;88.41
71105;BME280;58760;48.716;8.962;2023-04-30T03:38:05;96723.69;;;9.75;89.10
71105;BME280;58760;48.716;8.962;2023-04-30T03:40:30;96722.72;;;9.84;88.58
71105;BME280;58760;48.716;8.962;2023-04-30T03:42:56;96721.69;;;9.77;88.36
71105;BME280;58760;48.716;8.962;2023-04-30T03:45:21;96721.53;;;9.79;88.63
71105;BME280;58760;48.716;8.962;2023-04-30T03:47:47;96720.06;;;9.84;87.46
71105;BME280;58760;48.716;8.962;2023-04-30T03:50:13;96723.56;;;9.85;87.52
71105;BME280;58760;48.716;8.962;2023-04-30T03:52:38;96716.06;;;9.88;87.65
71105;BME280;58760;48.716;8.962;2023-04-30T03:55:04;96724.19;;;9.87;86.97
71105;BME280;58760;48.716;8.962;2023-04-30T03:57:30;96725.19;;;9.78;87.70
71105;BME280;58760;48.716;8.962;2023-04-30T03:59:56;96727.00;;;9.77;87.59
71105;BME280;58760;48.716;8.962;2023-04-30T04:02:21;96726.50;;;9.82;87.41
71105;BME280;58760;48.716;8.962;2023-04-30T04:04:47;96726.84;;;9.95;86.36
71105;BME280;58760;48.716;8.962;2023-04-30T04:07:12;96719.41;;;9.90;86.71
71105;BME280;58760;48.716;8.962;2023-04-30T04:09:39;96719.06;;;9.85;86.94
71105;BME280;58760;48.716;8.962;2023-04-30T04:12:04;96723.19;;;9.80;86.97
71105;BME280;58760;48.716;8.962;2023-04-30T04:14:30;96725.53;;;9.91;86.55
71105;BME280;58760;48.716;8.962;2023-04-30T04:16:55;96727.84;;;9.86;86.50
71105;BME280;58760;48.716;8.962;2023-04-30T04:19:22;96734.78;;;9.79;87.01
71105;BME280;58760;48.716;8.962;2023-04-30T04:21:47;96735.47;;;9.81;86.59
71105;BME280;58760;48.716;8.962;2023-04-30T04:24:13;96733.97;;;9.78;86.61
71105;BME280;58760;48.716;8.962;2023-04-30T04:26:38;96735.94;;;9.68;87.15
71105;BME280;58760;48.716;8.962;2023-04-30T04:29:04;96732.44;;;9.76;86.62
71105;BME280;58760;48.716;8.962;2023-04-30T04:31:32;96736.94;;;9.75;86.77
71105;BME280;58760;48.716;8.962;2023-04-30T04:33:58;96738.28;;;9.87;86.36
71105;BME280;58760;48.716;8.962;2023-04-30T04:36:25;96733.81;;;9.88;86.37
71105;BME280;58760;48.716;8.962;2023-04-30T04:38:55;96735.94;;;9.76;86.77
71105;BME280;58760;48.716;8.962;2023-04-30T04:41:28;96742.41;;;9.74;87.02
71105;BME280;58760;48.716;8.962;2023-04-30T04:43:53;96742.06;;;9.69;86.97
71105;BME280;58760;48.716;8.962;2023-04-30T04:46:18;96739.28;;;9.78;86.86
71105;BME280;58760;48.716;8.962;2023-04-30T04:48:45;96741.09;;;9.78;86.89
71105;BME280;58760;48.716;8.962;2023-04-30T04:51:11;96738.44;;;9.78;86.98
71105;BME280;58760;48.716;8.962;2023-04-30T04:53:36;96738.59;;;9.76;86.37
71105;BME280;58760;48.716;8.962;2023-04-30T04:56:02;96741.56;;;9.73;86.66
71105;BME280;58760;48.716;8.962;2023-04-30T04:58:27;96736.63;;;9.78;86.20
71105;BME280;58760;48.716;8.962;2023-04-30T05:00:52;96740.09;;;9.87;86.20
71105;BME280;58760;48.716;8.962;2023-04-30T05:03:19;96744.91;;;9.83;85.96
71105;BME280;58760;48.716;8.962;2023-04-30T05:05:45;96743.41;;;9.89;85.93
71105;BME280;58760;48.716;8.962;2023-04-30T05:08:11;96750.06;;;9.85;85.77
71105;BME280;58760;48.716;8.962;2023-04-30T05:10:36;96750.19;;;9.83;86.60
71105;BME280;58760;48.716;8.962;2023-04-30T05:13:01;96750.22;;;9.91;86.37
71105;BME280;58760;48.716;8.962;2023-04-30T05:15:27;96749.72;;;9.96;86.59
71105;BME280;58760;48.716;8.962;2023-04-30T05:17:52;96742.94;;;10.10;85.45
71105;BME280;58760;48.716;8.962;2023-04-30T05:20:17;96744.44;;;10.12;85.49
71105;BME280;58760;48.716;8.962;2023-04-30T05:22:43;96746.31;;;10.20;85.07
71105;BME280;58760;48.716;8.962;2023-04-30T05:25:08;96746.63;;;10.17;85.36
71105;BME280;58760;48.716;8.962;2023-04-30T05:27:34;96746.47;;;10.26;84.78
71105;BME280;58760;48.716;8.962;2023-04-30T05:30:00;96741.34;;;10.33;83.92
71105;BME280;58760;48.716;8.962;2023-04-30T05:32:25;96738.50;;;10.42;83.85
71105;BME280;58760;48.716;8.962;2023-04-30T05:34:52;96744.81;;;10.41;84.26
71105;BME280;58760;48.716;8.962;2023-04-30T05:37:17;96737.03;;;10.56;83.39
71105;BME280;58760;48.716;8.962;2023-04-30T05:39:44;96737.19;;;10.63;82.73
71105;BME280;58760;48.716;8.962;2023-04-30T05:42:10;96732.84;;;10.54;82.74
71105;BME280;58760;48.716;8.962;2023-04-30T05:44:36;96739.81;;;10.55;82.91
71105;BME280;58760;48.716;8.962;2023-04-30T05:47:01;96738.00;;;10.55;83.15
71105;BME280;58760;48.716;8.962;2023-04-30T05:49:26;96741.31;;;10.65;83.08
71105;BME280;58760;48.716;8.962;2023-04-30T05:51:52;96740.31;;;10.58;82.25
71105;BME280;58760;48.716;8.962;2023-04-30T05:54:17;96735.66;;;10.60;82.87
71105;BME280;58760;48.716;8.962;2023-04-30T05:56:42;96745.78;;;10.65;82.47
71105;BME280;58760;48.716;8.962;2023-04-30T05:59:08;96744.63;;;10.59;82.89
71105;BME280;58760;48.716;8.962;2023-04-30T06:01:33;96748.28;;;10.66;82.65
71105;BME280;58760;48.716;8.962;2023-04-30T06:03:59;96750.06;;;10.74;82.57
71105;BME280;58760;48.716;8.962;2023-04-30T06:06:25;96748.56;;;10.87;81.27
71105;BME280;58760;48.716;8.962;2023-04-30T06:08:52;96742.06;;;10.98;80.62
71105;BME280;58760;48.716;8.962;2023-04-30T06:11:17;96743.56;;;10.92;80.67
71105;BME280;58760;48.716;8.962;2023-04-30T06:13:43;96748.72;;;11.02;79.74
71105;BME280;58760;48.716;8.962;2023-04-30T06:16:08;96749.16;;;11.14;80.21
71105;BME280;58760;48.716;8.962;2023-04-30T06:18:34;96743.28;;;11.34;78.09
71105;BME280;58760;48.716;8.962;2023-04-30T06:20:59;96749.13;;;11.22;79.04
71105;BME280;58760;48.716;8.962;2023-04-30T06:23:24;96750.94;;;11.29;79.31
71105;BME280;58760;48.716;8.962;2023-04-30T06:25:50;96745.69;;;11.52;77.96
71105;BME280;58760;48.716;8.962;2023-04-30T06:28:15;96738.91;;;11.80;76.27
71105;BME280;58760;48.716;8.962;2023-04-30T06:30:40;96743.91;;;11.83;75.94
71105;BME280;58760;48.716;8.962;2023-04-30T06:33:06;96744.22;;;11.80;75.23
71105;BME280;58760;48.716;8.962;2023-04-30T06:35:31;96746.28;;;12.01;75.29
71105;BME280;58760;48.716;8.962;2023-04-30T06:37:57;96746.81;;;11.96;74.56
71105;BME280;58760;48.716;8.962;2023-04-30T06:40:22;96738.13;;;11.80;73.76
71105;BME280;58760;48.716;8.962;2023-04-30T06:42:47;96734.41;;;12.12;73.10
71105;BME280;58760;48.716;8.962;2023-04-30T06:45:13;96738.25;;;12.32;73.25
71105;BME280;58760;48.716;8.962;2023-04-30T06:47:40;96746.00;;;12.41;73.01
71105;BME280;58760;48.716;8.962;2023-04-30T06:50:07;96742.41;;;12.49;72.10
71105;BME280;58760;48.716;8.962;2023-04-30T06:52:32;96749.44;;;12.65;71.89
71105;BME280;58760;48.716;8.962;2023-04-30T06:54:58;96752.50;;;12.76;70.31
71105;BME280;58760;48.716;8.962;2023-04-30T06:57:23;96751.41;;;12.71;70.12
71105;BME280;58760;48.716;8.962;2023-04-30T06:59:49;96747.22;;;12.68;69.85
71105;BME280;58760;48.716;8.962;2023-04-30T07:02:15;96747.75;;;12.86;69.88
71105;BME280;58760;48.716;8.962;2023-04-30T07:04:40;96741.41;;;13.02;69.14
71105;BME280;58760;48.716;8.962;2023-04-30T07:07:06;96740.69;;;13.08;67.93
71105;BME280;58760;48.716;8.962;2023-04-30T07:09:31;96748.47;;;12.95;69.04
71105;BME280;58760;48.716;8.962;2023-04-30T07:11:57;96739.59;;;13.17;68.70
71105;BME280;58760;48.716;8.962;2023-04-30T07:14:25;96742.84;;;13.13;67.77
71105;BME280;58760;48.716;8.962;2023-04-30T07:16:51;96743.94;;;13.18;67.49
71105;BME280;58760;48.716;8.962;2023-04-30T07:19:17;96743.13;;;13.32;67.31
71105;BME280;58760;48.716;8.962;2023-04-30T07:21:43;96742.38;;;13.38;66.37
71105;BME280;58760;48.716;8.962;2023-04-30T07:24:08;96739.13;;;13.43;67.01
71105;BME280;58760;48.716;8.962;2023-04-30T07:26:34;96742.16;;;13.54;66.82
71105;BME280;58760;48.716;8.962;2023-04-30T07:29:00;96725.88;;;13.64;65.83
71105;BME280;58760;48.716;8.962;2023-04-30T07:31:26;96737.75;;;13.61;65.74
71105;BME280;58760;48.716;8.962;2023-04-30T07:33:51;96739.97;;;13.58;65.77
71105;BME280;58760;48.716;8.962;2023-04-30T07:36:17;96726.84;;;13.42;66.60
71105;BME280;58760;48.716;8.962;2023-04-30T07:38:42;96724.41;;;13.61;66.53
71105;BME280;58760;48.716;8.962;2023-04-30T07:41:07;96729.47;;;13.56;65.36
71105;BME280;58760;48.716;8.962;2023-04-30T07:43:34;96723.97;;;13.43;65.32
71105;BME280;58760;48.716;8.962;2023-04-30T07:46:00;96723.34;;;13.41;64.64
71105;BME280;58760;48.716;8.962;2023-04-30T07:48:25;96723.34;;;13.41;64.85
71105;BME280;58760;48.716;8.962;2023-04-30T07:50:51;96721.91;;;13.75;65.94
71105;BME280;58760;48.716;8.962;2023-04-30T07:53:16;96719.34;;;13.67;64.11
71105;BME280;58760;48.716;8.962;2023-04-30T07:55:41;96713.53;;;13.78;62.58
71105;BME280;58760;48.716;8.962;2023-04-30T07:58:07;96711.38;;;13.88;64.30
71105;BME280;58760;48.716;8.962;2023-04-30T08:00:32;96724.28;;;14.05;64.67
71105;BME280;58760;48.716;8.962;2023-04-30T08:02:58;96721.69;;;14.12;62.76
71105;BME280;58760;48.716;8.962;2023-04-30T08:05:25;96722.88;;;14.31;62.45
71105;BME280;58760;48.716;8.962;2023-04-30T08:07:51;96719.19;;;14.32;60.10
71105;BME280;58760;48.716;8.962;2023-04-30T08:10:16;96719.41;;;14.51;59.98
71105;BME280;58760;48.716;8.962;2023-04-30T08:12:41;96721.53;;;14.84;59.58
71105;BME280;58760;48.716;8.962;2023-04-30T08:15:07;96720.75;;;14.62;58.82
71105;BME280;58760;48.716;8.962;2023-04-30T08:17:32;96722.53;;;14.83;57.67
71105;BME280;58760;48.716;8.962;2023-04-30T08:19:59;96723.66;;;14.67;56.66
71105;BME280;58760;48.716;8.962;2023-04-30T08:22:24;96724.91;;;14.71;57.40
71105;BME280;58760;48.716;8.962;2023-04-30T08:24:50;96729.25;;;14.72;56.61
71105;BME280;58760;48.716;8.962;2023-04-30T08:27:15;96724.09;;;14.71;58.93
71105;BME280;58760;48.716;8.962;2023-04-30T08:29:41;96721.19;;;14.44;59.33
71105;BME280;58760;48.716;8.962;2023-04-30T08:32:06;96727.03;;;14.76;58.06
71105;BME280;58760;48.716;8.962;2023-04-30T08:34:33;96721.88;;;15.02;56.03
71105;BME280;58760;48.716;8.962;2023-04-30T08:36:58;96728.75;;;14.62;55.85
71105;BME280;58760;48.716;8.962;2023-04-30T08:39:24;96720.59;;;14.98;55.65
71105;BME280;58760;48.716;8.962;2023-04-30T08:41:54;96719.81;;;15.04;55.76
71105;BME280;58760;48.716;8.962;2023-04-30T08:44:21;96719.47;;;15.13;55.04
71105;BME280;58760;48.716;8.962;2023-04-30T08:46:50;96716.22;;;15.18;54.27
71105;BME280;58760;48.716;8.962;2023-04-30T08:49:17;96720.13;;;14.88;54.33
71105;BME280;58760;48.716;8.962;2023-04-30T08:51:43;96726.53;;;14.93;54.47
71105;BME280;58760;48.716;8.962;2023-04-30T08:54:11;96720.38;;;14.99;54.61
71105;BME280;58760;48.716;8.962;2023-04-30T08:56:37;96729.22;;;15.00;55.51
71105;BME280;58760;48.716;8.962;2023-04-30T08:59:02;96719.72;;;15.25;56.11
71105;BME280;58760;48.716;8.962;2023-04-30T09:01:29;96717.25;;;15.24;55.07
71105;BME280;58760;48.716;8.962;2023-04-30T09:03:55;96724.72;;;15.00;55.23
71105;BME280;58760;48.716;8.962;2023-04-30T09:06:20;96725.78;;;15.06;55.72
71105;BME280;58760;48.716;8.962;2023-04-30T09:08:48;96730.38;;;15.18;55.36
71105;BME280;58760;48.716;8.962;2023-04-30T09:11:28;96728.13;;;15.22;55.48
71105;BME280;58760;48.716;8.962;2023-04-30T09:13:56;96713.75;;;15.23;53.57
71105;BME280;58760;48.716;8.962;2023-04-30T09:16:23;96717.88;;;14.63;55.01
71105;BME280;58760;48.716;8.962;2023-04-30T09:18:49;96722.88;;;15.01;55.19
71105;BME280;58760;48.716;8.962;2023-04-30T09:21:15;96730.75;;;14.81;54.24
71105;BME280;58760;48.716;8.962;2023-04-30T09:23:54;96728.34;;;14.93;54.47
71105;BME280;58760;48.716;8.962;2023-04-30T09:26:25;96730.09;;;15.07;53.70
71105;BME280;58760;48.716;8.962;2023-04-30T09:28:55;96724.91;;;14.99;53.89
71105;BME280;58760;48.716;8.962;2023-04-30T09:31:21;96726.16;;;15.03;53.20
71105;BME280;58760;48.716;8.962;2023-04-30T09:33:47;96724.22;;;14.90;52.27
71105;BME280;58760;48.716;8.962;2023-04-30T09:36:12;96727.69;;;14.84;53.83
71105;BME280;58760;48.716;8.962;2023-04-30T09:38:38;96728.22;;;15.01;53.74
71105;BME280;58760;48.716;8.962;2023-04-30T09:41:03;96727.44;;;15.07;52.06
71105;BME280;58760;48.716;8.962;2023-04-30T09:43:29;96727.88;;;14.83;53.38
71105;BME280;58760;48.716;8.962;2023-04-30T09:45:57;96729.22;;;15.00;52.16
71105;BME280;58760;48.716;8.962;2023-04-30T09:48:26;96723.53;;;15.09;52.30
71105;BME280;58760;48.716;8.962;2023-04-30T09:50:52;96720.41;;;15.34;52.82
71105;BME280;58760;48.716;8.962;2023-04-30T09:53:18;96729.22;;;15.68;50.51
71105;BME280;58760;48.716;8.962;2023-04-30T09:55:49;96721.69;;;15.44;52.56
71105;BME280;58760;48.716;8.962;2023-04-30T09:58:17;96725.09;;;15.59;51.77
71105;BME280;58760;48.716;8.962;2023-04-30T10:00:44;96724.44;;;15.57;52.27
71105;BME280;58760;48.716;8.962;2023-04-30T10:03:12;96724.81;;;15.95;52.29
71105;BME280;58760;48.716;8.962;2023-04-30T10:05:46;96718.06;;;15.58;50.54
71105;BME280;58760;48.716;8.962;2023-04-30T10:08:39;96721.53;;;16.13;49.66
71105;BME280;58760;48.716;8.962;2023-04-30T10:11:08;96713.41;;;16.60;47.94
71105;BME280;58760;48.716;8.962;2023-04-30T10:13:59;96721.78;;;16.18;48.78
71105;BME280;58760;48.716;8.962;2023-04-30T10:19:11;96717.91;;;16.53;49.07
71105;BME280;58760;48.716;8.962;2023-04-30T10:21:39;96714.44;;;16.86;47.58
71105;BME280;58760;48.716;8.962;2023-04-30T10:24:08;96725.13;;;16.99;47.48
71105;BME280;58760;48.716;8.962;2023-04-30T10:26:34;96714.84;;;16.83;45.91
71105;BME280;58760;48.716;8.962;2023-04-30T10:29:01;96713.00;;;16.90;47.80
71105;BME280;58760;48.716;8.962;2023-04-30T10:31:27;96706.31;;;17.32;47.30
71105;BME280;58760;48.716;8.962;2023-04-30T10:36:42;96707.19;;;17.06;47.03
71105;BME280;58760;48.716;8.962;2023-04-30T10:39:21;96706.53;;;17.17;47.29
71105;BME280;58760;48.716;8.962;2023-04-30T10:41:48;96705.50;;;17.18;45.65
71105;BME280;58760;48.716;8.962;2023-04-30T10:44:21;96696.00;;;17.29;44.15
71105;BME280;58760;48.716;8.962;2023-04-30T10:46:47;96694.31;;;17.34;43.37
71105;BME280;58760;48.716;8.962;2023-04-30T10:49:12;96690.88;;;17.07;43.97
71105;BME280;58760;48.716;8.962;2023-04-30T10:51:48;96690.88;;;17.14;43.82
71105;BME280;58760;48.716;8.962;2023-04-30T10:54:24;96691.66;;;17.27;45.75
71105;BME280;58760;48.716;8.962;2023-04-30T10:56:51;96683.16;;;17.37;43.50
71105;BME280;58760;48.716;8.962;2023-04-30T10:59:17;96677.34;;;17.60;45.12
71105;BME280;58760;48.716;8.962;2023-04-30T11:01:59;96682.25;;;17.69;44.72
71105;BME280;58760;48.716;8.962;2023-04-30T11:04:26;96669.50;;;17.52;43.66
71105;BME280;58760;48.716;8.962;2023-04-30T11:09:18;96679.22;;;17.46;41.61
71105;BME280;58760;48.716;8.962;2023-04-30T11:11:44;96678.22;;;17.34;43.98
71105;BME280;58760;48.716;8.962;2023-04-30T11:14:10;96674.78;;;17.07;43.25
71105;BME280;58760;48.716;8.962;2023-04-30T11:16:36;96663.84;;;17.73;43.96
71105;BME280;58760;48.716;8.962;2023-04-30T11:19:05;96665.25;;;17.82;41.61
71105;BME280;58760;48.716;8.962;2023-04-30T11:21:31;96668.13;;;17.87;44.01
71105;BME280;58760;48.716;8.962;2023-04-30T11:24:02;96663.53;;;17.94;43.10
71105;BME280;58760;48.716;8.962;2023-04-30T11:27:03;96661.97;;;17.80;44.44
71105;BME280;58760;48.716;8.962;2023-04-30T11:29:30;96663.88;;;17.66;43.46
71105;BME280;58760;48.716;8.962;2023-04-30T11:31:55;96661.47;;;17.45;43.14
71105;BME280;58760;48.716;8.962;2023-04-30T11:34:25;96664.75;;;17.60;42.45
71105;BME280;58760;48.716;8.962;2023-04-30T11:36:53;96661.63;;;17.63;42.87
71105;BME280;58760;48.716;8.962;2023-04-30T11:39:23;96670.63;;;17.24;43.17
71105;BME280;58760;48.716;8.962;2023-04-30T11:41:48;96663.41;;;17.18;43.49
71105;BME280;58760;48.716;8.962;2023-04-30T11:44:26;96665.88;;;17.20;43.97
71105;BME280;58760;48.716;8.962;2023-04-30T11:46:52;96660.94;;;17.17;43.42
71105;BME280;58760;48.716;8.962;2023-04-30T11:49:19;96664.47;;;17.11;45.73
71105;BME280;58760;48.716;8.962;2023-04-30T11:51:47;96660.91;;;17.30;44.23
71105;BME280;58760;48.716;8.962;2023-04-30T11:54:14;96654.50;;;17.31;44.81
71105;BME280;58760;48.716;8.962;2023-04-30T11:56:44;96646.38;;;17.57;45.43
71105;BME280;58760;48.716;8.962;2023-04-30T11:59:11;96657.56;;;17.41;43.82
71105;BME280;58760;48.716;8.962;2023-04-30T12:01:36;96648.91;;;17.39;44.97
71105;BME280;58760;48.716;8.962;2023-04-30T12:04:02;96646.00;;;17.41;43.73
71105;BME280;58760;48.716;8.962;2023-04-30T12:06:29;96650.16;;;17.37;42.86
71105;BME280;58760;48.716;8.962;2023-04-30T12:08:56;96648.34;;;17.24;44.26
71105;BME280;58760;48.716;8.962;2023-04-30T12:11:25;96645.50;;;17.12;44.38
71105;BME280;58760;48.716;8.962;2023-04-30T12:13:52;96652.06;;;17.30;45.19
71105;BME280;58760;48.716;8.962;2023-04-30T12:16:18;96654.03;;;17.47;44.42
71105;BME280;58760;48.716;8.962;2023-04-30T12:18:44;96647.50;;;17.81;44.11
71105;BME280;58760;48.716;8.962;2023-04-30T12:21:10;96650.81;;;17.76;43.26
71105;BME280;58760;48.716;8.962;2023-04-30T12:23:35;96652.84;;;17.88;43.43
71105;BME280;58760;48.716;8.962;2023-04-30T12:26:01;96648.66;;;17.92;43.11
71105;BME280;58760;48.716;8.962;2023-04-30T12:28:27;96653.00;;;17.93;43.87
71105;BME280;58760;48.716;8.962;2023-04-30T12:30:52;96650.81;;;17.76;42.99
71105;BME280;58760;48.716;8.962;2023-04-30T12:33:18;96648.41;;;17.68;42.26
71105;BME280;58760;48.716;8.962;2023-04-30T12:35:44;96643.78;;;17.82;41.71
71105;BME280;58760;48.716;8.962;2023-04-30T12:38:10;96645.81;;;17.87;42.12
71105;BME280;58760;48.716;8.962;2023-04-30T12:40:35;96642.97;;;18.38;42.09
71105;BME280;58760;48.716;8.962;2023-04-30T12:43:03;96635.16;;;18.86;41.32
71105;BME280;58760;48.716;8.962;2023-04-30T12:48:16;96630.53;;;18.93;40.54
71105;BME280;58760;48.716;8.962;2023-04-30T12:50:41;96631.72;;;18.97;39.30
71105;BME280;58760;48.716;8.962;2023-04-30T12:53:11;96624.28;;;18.49;40.28
71105;BME280;58760;48.716;8.962;2023-04-30T12:55:36;96618.06;;;18.98;40.71
71105;BME280;58760;48.716;8.962;2023-04-30T13:03:12;96608.81;;;19.78;38.95
71105;BME280;58760;48.716;8.962;2023-04-30T13:05:39;96607.31;;;19.82;39.77
71105;BME280;58760;48.716;8.962;2023-04-30T13:08:05;96606.31;;;19.95;38.02
71105;BME280;58760;48.716;8.962;2023-04-30T13:10:31;96605.97;;;20.45;37.59
71105;BME280;58760;48.716;8.962;2023-04-30T13:12:57;96593.94;;;21.73;35.64
71105;BME280;58760;48.716;8.962;2023-04-30T13:15:23;96596.25;;;20.67;37.48
71105;BME280;58760;48.716;8.962;2023-04-30T13:17:49;96594.25;;;20.85;36.35
71105;BME280;58760;48.716;8.962;2023-04-30T13:20:15;96591.66;;;20.44;36.86
71105;BME280;58760;48.716;8.962;2023-04-30T13:22:40;96591.91;;;20.54;38.80
71105;BME280;58760;48.716;8.962;2023-04-30T13:25:06;96597.56;;;20.64;36.82
71105;BME280;58760;48.716;8.962;2023-04-30T13:27:31;96586.03;;;20.92;37.74
71105;BME280;58760;48.716;8.962;2023-04-30T13:29:57;96600.09;;;21.06;36.23
71105;BME280;58760;48.716;8.962;2023-04-30T13:32:23;96594.34;;;21.25;36.90
71105;BME280;58760;48.716;8.962;2023-04-30T13:34:48;96590.97;;;20.60;36.24
71105;BME280;58760;48.716;8.962;2023-04-30T13:37:16;96595.31;;;20.38;38.04